Time;durP1;ratioP1;P1;durP2;ratioP2;P2;SDS_P1;SDS_P2;PMS_P1;PMS_P2;Temp;Humidity;BMP_temperature;BMP_pressure;BME280_temperature;BME280_humidity;BME280_pressure;Samples;Min_cycle;Max_cycle;Signal;HPM_P1;HPM_P2
2023/01/04 00:02:07;;;;;;;;;;;8.30;99.90;;;;;;4983239;28;19921;-75
2023/01/04 00:04:32;;;;;;;;;;;8.40;99.90;;;;;;4984200;28;19918;-75
2023/01/04 00:06:58;;;;;;;;;;;8.30;99.90;;;;;;4985727;28;19941;-75
2023/01/04 00:09:23;;;;;;;;;;;8.30;99.90;;;;;;4981065;28;19980;-76
2023/01/04 00:11:49;;;;;;;;;;;8.40;99.90;;;;;;4985821;28;19953;-76
2023/01/04 00:14:16;;;;;;;;;;;9.00;99.90;;;;;;4981138;28;19928;-75
2023/01/04 00:16:41;;;;;;;;;;;8.40;99.90;;;;;;4985003;28;19930;-75
2023/01/04 00:19:08;;;;;;;;;;;8.40;99.90;;;;;;4983673;28;19929;-75
2023/01/04 00:21:34;;;;;;;;;;;8.80;99.90;;;;;;4983290;28;19926;-76
2023/01/04 00:24:00;;;;;;;;;;;8.40;99.90;;;;;;4981516;28;19922;-76
2023/01/04 00:26:27;;;;;;;;;;;8.50;99.90;;;;;;4981383;28;20064;-76
2023/01/04 00:28:54;;;;;;;;;;;8.40;99.90;;;;;;4981759;28;20404;-76
2023/01/04 00:31:20;;;;;;;;;;;8.40;99.90;;;;;;4981476;28;19922;-75
2023/01/04 00:33:45;;;;;;;;;;;8.30;99.90;;;;;;4984369;28;19929;-75
2023/01/04 00:36:12;;;;;;;;;;;8.30;99.90;;;;;;4982631;28;19930;-75
2023/01/04 00:38:38;;;;;;;;;;;8.40;99.90;;;;;;4982532;28;19975;-75
2023/01/04 00:41:05;;;;;;;;;;;8.40;99.90;;;;;;4983905;28;19969;-75
2023/01/04 00:43:30;;;;;;;;;;;8.50;99.90;;;;;;4982262;28;19929;-75
2023/01/04 00:45:56;;;;;;;;;;;8.60;99.90;;;;;;4984623;28;19926;-76
2023/01/04 00:48:22;;;;;;;;;;;8.50;99.90;;;;;;4982680;28;19926;-75
2023/01/04 00:50:50;;;;;;;;;;;8.40;99.90;;;;;;4984546;28;20370;-76
2023/01/04 00:53:16;;;;;;;;;;;8.50;99.90;;;;;;4981786;28;19922;-75
2023/01/04 00:55:42;;;;;;;;;;;8.80;99.90;;;;;;4985402;28;20389;-75
2023/01/04 00:58:08;;;;;;;;;;;8.50;99.90;;;;;;4981361;28;19929;-75
2023/01/04 01:00:34;;;;;;;;;;;8.50;99.90;;;;;;4984373;28;20525;-75
2023/01/04 01:02:59;;;;;;;;;;;8.40;99.90;;;;;;4981420;28;20378;-75
2023/01/04 01:05:25;;;;;;;;;;;8.50;99.90;;;;;;4983135;28;19955;-75
2023/01/04 01:07:51;;;;;;;;;;;8.40;99.90;;;;;;4982439;28;20352;-75
2023/01/04 01:10:16;;;;;;;;;;;9.40;99.90;;;;;;4981190;28;19928;-76
2023/01/04 01:12:42;;;;;;;;;;;8.40;99.90;;;;;;4985417;28;19925;-75
2023/01/04 01:15:08;;;;;;;;;;;8.50;99.90;;;;;;4982131;28;19980;-75
2023/01/04 01:17:33;;;;;;;;;;;8.40;99.90;;;;;;4983269;28;19926;-75
2023/01/04 01:19:59;;;;;;;;;;;8.40;99.90;;;;;;4982117;28;19922;-76
2023/01/04 01:22:25;;;;;;;;;;;8.80;99.90;;;;;;4982843;28;19925;-76
2023/01/04 01:24:51;;;;;;;;;;;8.40;99.90;;;;;;4981473;28;19945;-76
2023/01/04 01:27:16;;;;;;;;;;;8.50;99.90;;;;;;4982843;28;20366;-76
2023/01/04 01:29:42;;;;;;;;;;;8.40;99.90;;;;;;4984063;28;19925;-75
2023/01/04 01:32:08;;;;;;;;;;;8.90;99.90;;;;;;4980776;28;20343;-75
2023/01/04 01:34:33;;;;;;;;;;;8.50;99.90;;;;;;4982914;28;19921;-76
2023/01/04 01:36:59;;;;;;;;;;;8.80;99.90;;;;;;4979944;28;20008;-75
2023/01/04 01:39:24;;;;;;;;;;;8.40;99.90;;;;;;4982079;28;20009;-75
2023/01/04 01:41:50;;;;;;;;;;;8.40;99.90;;;;;;4981509;28;19921;-75
2023/01/04 01:44:34;;;;;;;;;;;8.40;99.90;;;;;;4983303;28;19917;-75
2023/01/04 01:47:00;;;;;;;;;;;8.50;99.90;;;;;;4983657;28;19970;-75
2023/01/04 01:49:31;;;;;;;;;;;8.40;99.90;;;;;;4983319;28;20432;-75
2023/01/04 01:51:58;;;;;;;;;;;8.60;99.90;;;;;;4980701;28;20366;-75
2023/01/04 01:54:34;;;;;;;;;;;9.00;99.90;;;;;;4982803;28;20027;-76
2023/01/04 01:57:02;;;;;;;;;;;8.50;99.90;;;;;;4975922;28;19976;-75
2023/01/04 01:59:28;;;;;;;;;;;8.50;99.90;;;;;;4982524;28;19922;-75
2023/01/04 02:01:54;;;;;;;;;;;8.50;99.90;;;;;;4972786;28;20081;-75
2023/01/04 02:04:19;;;;;;;;;;;8.50;99.90;;;;;;4974148;28;20000;-76
2023/01/04 02:06:47;;;;;;;;;;;8.50;99.90;;;;;;4984998;28;20011;-76
2023/01/04 02:09:13;;;;;;;;;;;8.50;99.90;;;;;;4981965;28;19926;-76
2023/01/04 02:11:38;;;;;;;;;;;8.60;99.90;;;;;;4979514;28;20012;-76
2023/01/04 02:16:58;;;;;;;;;;;8.60;99.90;;;;;;4981717;28;19988;-76
2023/01/04 02:19:26;;;;;;;;;;;8.50;99.90;;;;;;4983356;28;19921;-76
2023/01/04 02:22:01;;;;;;;;;;;8.50;99.90;;;;;;4980049;28;19933;-76
2023/01/04 02:24:33;;;;;;;;;;;8.50;99.90;;;;;;4974776;28;19928;-76
2023/01/04 02:27:05;;;;;;;;;;;8.60;99.90;;;;;;4976230;28;19926;-76
2023/01/04 02:29:49;;;;;;;;;;;8.60;99.90;;;;;;4976679;28;19922;-76
2023/01/04 02:32:22;;;;;;;;;;;8.50;99.90;;;;;;4981390;28;19929;-76
2023/01/04 02:35:06;;;;;;;;;;;8.50;99.90;;;;;;4982471;28;19929;-76
2023/01/04 02:37:32;;;;;;;;;;;8.60;99.90;;;;;;4977738;28;20418;-76
2023/01/04 02:40:07;;;;;;;;;;;8.60;99.90;;;;;;4983447;28;20000;-76
2023/01/04 02:45:33;;;;;;;;;;;8.60;99.90;;;;;;4991520;28;19926;-76
2023/01/04 02:50:53;;;;;;;;;;;8.80;99.90;;;;;;4999067;28;19922;-76
2023/01/04 02:53:21;;;;;;;;;;;8.70;99.90;;;;;;4984016;28;19922;-77
2023/01/04 02:56:05;;;;;;;;;;;9.30;99.90;;;;;;4987817;28;20065;-76
2023/01/04 02:58:49;;;;;;;;;;;8.70;99.90;;;;;;4982250;28;19922;-77
2023/01/04 03:07:09;;;;;;;;;;;8.70;99.90;;;;;;4955101;28;19976;-76
2023/01/04 03:09:37;;;;;;;;;;;9.00;99.90;;;;;;4983402;28;19985;-76
2023/01/04 03:14:59;;;;;;;;;;;8.80;99.90;;;;;;4996954;28;19929;-75
2023/01/04 03:17:26;;;;;;;;;;;8.80;99.90;;;;;;4984795;28;19929;-76
2023/01/04 03:19:55;;;;;;;;;;;8.80;99.90;;;;;;4987508;28;19921;-76
2023/01/04 03:36:57;;;;;;;;;;;9.70;99.90;;;;;;4983456;28;19925;-76
2023/01/04 03:48:33;;;;;;;;;;;9.80;99.90;;;;;;4941552;29;19966;-76
2023/01/04 03:51:13;;;;;;;;;;;10.10;99.90;;;;;;4943985;29;19926;-76
2023/01/04 03:53:42;;;;;;;;;;;9.90;99.90;;;;;;4965470;28;19922;-76
2023/01/04 03:56:10;;;;;;;;;;;9.80;99.90;;;;;;4982081;28;19922;-76
2023/01/04 03:58:36;;;;;;;;;;;9.90;99.90;;;;;;4984844;28;19922;-77
2023/01/04 04:01:02;;;;;;;;;;;9.90;99.90;;;;;;4983477;28;20440;-77
2023/01/04 04:08:58;;;;;;;;;;;10.00;99.90;;;;;;4983368;28;19925;-76
2023/01/04 04:11:29;;;;;;;;;;;10.00;99.90;;;;;;4982747;28;19926;-76
2023/01/04 04:13:55;;;;;;;;;;;10.00;99.90;;;;;;4984912;28;19928;-76
2023/01/04 04:16:21;;;;;;;;;;;10.00;99.90;;;;;;4983400;28;19921;-75
2023/01/04 04:18:47;;;;;;;;;;;10.10;99.90;;;;;;4985039;28;20282;-76
2023/01/04 04:21:24;;;;;;;;;;;10.20;99.90;;;;;;4981694;28;20404;-76
2023/01/04 04:23:50;;;;;;;;;;;9.90;99.90;;;;;;4982088;28;19926;-76
2023/01/04 04:26:15;;;;;;;;;;;10.30;99.90;;;;;;4983392;28;19951;-76
2023/01/04 04:28:44;;;;;;;;;;;10.10;99.90;;;;;;4985445;28;19921;-76
2023/01/04 04:31:10;;;;;;;;;;;10.10;99.90;;;;;;4982578;28;20009;-76
2023/01/04 04:33:35;;;;;;;;;;;10.10;99.90;;;;;;4982002;28;20025;-76
2023/01/04 04:36:01;;;;;;;;;;;10.10;99.90;;;;;;4981991;28;19918;-76
2023/01/04 04:38:26;;;;;;;;;;;10.00;99.90;;;;;;4984844;28;19926;-76
2023/01/04 04:43:36;;;;;;;;;;;10.10;99.90;;;;;;4984986;28;20281;-76
2023/01/04 04:46:02;;;;;;;;;;;10.20;99.90;;;;;;4980867;28;19949;-76
2023/01/04 04:48:27;;;;;;;;;;;10.20;99.90;;;;;;4983599;28;19921;-76
2023/01/04 04:50:53;;;;;;;;;;;10.10;99.90;;;;;;4981088;28;19980;-76
2023/01/04 04:53:18;;;;;;;;;;;10.10;99.90;;;;;;4985509;28;19984;-76
2023/01/04 04:55:44;;;;;;;;;;;10.10;99.90;;;;;;4982987;28;19921;-77
2023/01/04 04:58:09;;;;;;;;;;;10.10;99.90;;;;;;4981436;28;19922;-77
2023/01/04 05:00:35;;;;;;;;;;;10.20;99.90;;;;;;4984779;28;19922;-76
2023/01/04 05:03:01;;;;;;;;;;;10.20;99.90;;;;;;4982249;28;19933;-77
2023/01/04 05:05:27;;;;;;;;;;;10.20;99.90;;;;;;4983185;28;19932;-77
2023/01/04 05:07:53;;;;;;;;;;;10.20;99.90;;;;;;4980874;28;19922;-76
2023/01/04 05:10:18;;;;;;;;;;;10.20;99.90;;;;;;4982250;28;20515;-76
2023/01/04 05:12:59;;;;;;;;;;;10.30;99.90;;;;;;4982647;28;19967;-77
2023/01/04 05:15:32;;;;;;;;;;;10.40;99.90;;;;;;4983623;28;20397;-77
2023/01/04 05:18:00;;;;;;;;;;;10.30;99.90;;;;;;4974641;28;20753;-77
2023/01/04 05:20:26;;;;;;;;;;;10.40;99.90;;;;;;4979488;28;19925;-77
2023/01/04 05:22:52;;;;;;;;;;;10.30;99.90;;;;;;4980946;28;19952;-77
2023/01/04 05:25:17;;;;;;;;;;;10.20;99.90;;;;;;4976720;28;19922;-76
2023/01/04 05:27:43;;;;;;;;;;;10.30;99.90;;;;;;4981431;28;19922;-76
2023/01/04 05:32:56;;;;;;;;;;;10.30;99.90;;;;;;4992262;28;20008;-76
2023/01/04 05:35:22;;;;;;;;;;;10.30;99.90;;;;;;4980061;28;20020;-75
2023/01/04 05:37:50;;;;;;;;;;;10.30;99.90;;;;;;4981878;28;19953;-76
2023/01/04 05:40:15;;;;;;;;;;;10.20;99.90;;;;;;4982449;28;20017;-76
2023/01/04 05:42:41;;;;;;;;;;;10.20;99.90;;;;;;4979776;28;20008;-76
2023/01/04 05:45:07;;;;;;;;;;;10.10;99.90;;;;;;4983684;28;19996;-76
2023/01/04 05:47:33;;;;;;;;;;;10.30;99.90;;;;;;4981307;28;19948;-75
2023/01/04 05:49:58;;;;;;;;;;;10.20;99.90;;;;;;4984193;28;19948;-76
2023/01/04 05:52:27;;;;;;;;;;;10.30;99.90;;;;;;4979888;28;19922;-75
2023/01/04 05:54:52;;;;;;;;;;;10.30;99.90;;;;;;4983843;28;19936;-76
2023/01/04 05:57:18;;;;;;;;;;;10.30;99.90;;;;;;4980721;28;19945;-76
2023/01/04 05:59:44;;;;;;;;;;;10.20;99.90;;;;;;4983251;28;21364;-76
2023/01/04 06:02:13;;;;;;;;;;;10.20;99.90;;;;;;4980151;28;19926;-76
2023/01/04 06:04:39;;;;;;;;;;;10.20;99.90;;;;;;4981750;28;20366;-76
2023/01/04 06:07:05;;;;;;;;;;;10.30;99.90;;;;;;4982380;28;19928;-76
2023/01/04 06:09:30;;;;;;;;;;;10.30;99.90;;;;;;4980103;28;19951;-77
2023/01/04 06:11:56;;;;;;;;;;;10.30;99.90;;;;;;4982659;28;20282;-76
2023/01/04 06:14:22;;;;;;;;;;;10.40;99.90;;;;;;4979064;28;19924;-76
2023/01/04 06:16:47;;;;;;;;;;;10.40;99.90;;;;;;4978968;28;20829;-76
2023/01/04 06:19:13;;;;;;;;;;;10.40;99.90;;;;;;4979249;28;19983;-76
2023/01/04 06:21:38;;;;;;;;;;;10.40;99.90;;;;;;4979257;28;19949;-76
2023/01/04 06:24:04;;;;;;;;;;;10.30;99.90;;;;;;4977586;28;19922;-76
2023/01/04 06:26:29;;;;;;;;;;;10.30;99.90;;;;;;4981182;28;19925;-76
2023/01/04 06:28:58;;;;;;;;;;;10.30;99.90;;;;;;4981952;28;19976;-77
2023/01/04 06:31:23;;;;;;;;;;;10.30;99.90;;;;;;4979274;28;19926;-77
2023/01/04 06:33:49;;;;;;;;;;;10.40;99.90;;;;;;4982434;28;20394;-76
2023/01/04 06:36:14;;;;;;;;;;;10.40;99.90;;;;;;4978636;28;20283;-76
2023/01/04 06:38:40;;;;;;;;;;;10.50;99.90;;;;;;4982995;28;20391;-77
2023/01/04 06:41:05;;;;;;;;;;;10.50;99.90;;;;;;4981280;28;20388;-77
2023/01/04 06:43:31;;;;;;;;;;;10.40;99.90;;;;;;4981605;28;19928;-76
2023/01/04 06:45:56;;;;;;;;;;;10.40;99.90;;;;;;4981525;28;19929;-77
2023/01/04 06:48:22;;;;;;;;;;;10.60;99.90;;;;;;4982426;28;20012;-77
2023/01/04 06:50:47;;;;;;;;;;;10.50;99.90;;;;;;4982095;28;19928;-76
2023/01/04 06:53:16;;;;;;;;;;;10.50;99.90;;;;;;4976652;28;20373;-77
2023/01/04 06:55:42;;;;;;;;;;;10.50;99.90;;;;;;4976282;28;19928;-77
2023/01/04 06:58:08;;;;;;;;;;;10.50;99.90;;;;;;4978888;28;20024;-77
2023/01/04 07:00:33;;;;;;;;;;;10.40;99.90;;;;;;4981778;28;21432;-76
2023/01/04 07:02:59;;;;;;;;;;;10.50;99.90;;;;;;4977619;28;20381;-76
2023/01/04 07:05:24;;;;;;;;;;;10.50;99.90;;;;;;4979709;28;20296;-77
2023/01/04 07:07:51;;;;;;;;;;;10.50;99.90;;;;;;4983895;28;19922;-75
2023/01/04 07:10:16;;;;;;;;;;;10.50;99.90;;;;;;4981715;28;19976;-75
2023/01/04 07:12:42;;;;;;;;;;;10.50;99.90;;;;;;4979841;28;19921;-76
2023/01/04 07:15:08;;;;;;;;;;;10.50;99.90;;;;;;4982033;28;20012;-76
2023/01/04 07:17:33;;;;;;;;;;;10.60;99.90;;;;;;4979242;28;19925;-76
2023/01/04 07:19:59;;;;;;;;;;;10.60;99.90;;;;;;4982152;28;19926;-74
2023/01/04 07:22:24;;;;;;;;;;;10.50;99.90;;;;;;4979421;28;19937;-75
2023/01/04 07:24:53;;;;;;;;;;;10.50;99.90;;;;;;4984409;28;20377;-74
2023/01/04 07:27:18;;;;;;;;;;;10.50;99.90;;;;;;4980296;28;19918;-75
2023/01/04 07:29:44;;;;;;;;;;;10.90;99.90;;;;;;4981977;28;19922;-76
2023/01/04 07:32:10;;;;;;;;;;;10.40;99.90;;;;;;4979209;28;19921;-76
2023/01/04 07:34:36;;;;;;;;;;;10.40;99.90;;;;;;4982810;28;19926;-75
2023/01/04 07:37:02;;;;;;;;;;;10.50;99.90;;;;;;4984291;28;20031;-76
2023/01/04 07:39:27;;;;;;;;;;;10.50;99.90;;;;;;4983764;28;19961;-76
2023/01/04 07:41:53;;;;;;;;;;;10.50;99.90;;;;;;4984969;28;19972;-76
2023/01/04 07:44:24;;;;;;;;;;;10.60;99.90;;;;;;4983574;28;19989;-76
2023/01/04 07:46:49;;;;;;;;;;;10.50;99.90;;;;;;4985086;28;19922;-76
2023/01/04 07:49:17;;;;;;;;;;;10.60;99.90;;;;;;4985124;28;19976;-76
2023/01/04 07:51:42;;;;;;;;;;;10.50;99.90;;;;;;4985469;28;20008;-76
2023/01/04 07:54:09;;;;;;;;;;;10.50;99.90;;;;;;4983232;28;20402;-76
2023/01/04 07:56:34;;;;;;;;;;;10.40;99.90;;;;;;4982203;28;19925;-76
2023/01/04 07:59:00;;;;;;;;;;;10.50;99.90;;;;;;4981276;28;20271;-76
2023/01/04 08:01:26;;;;;;;;;;;10.40;99.90;;;;;;4985302;28;19929;-76
2023/01/04 08:03:52;;;;;;;;;;;10.40;99.90;;;;;;4983009;28;19925;-76
2023/01/04 08:06:20;;;;;;;;;;;10.40;99.90;;;;;;4982977;28;19937;-75
2023/01/04 08:08:46;;;;;;;;;;;11.60;99.90;;;;;;4984954;28;19926;-76
2023/01/04 08:11:13;;;;;;;;;;;10.50;99.90;;;;;;4982763;28;20012;-76
2023/01/04 08:13:39;;;;;;;;;;;10.50;99.90;;;;;;4984649;28;20256;-76
2023/01/04 08:16:05;;;;;;;;;;;10.50;99.90;;;;;;4983687;28;20370;-75
2023/01/04 08:18:31;;;;;;;;;;;10.60;99.90;;;;;;4985836;28;20358;-75
2023/01/04 08:21:06;;;;;;;;;;;10.70;99.90;;;;;;4978657;28;19928;-76
2023/01/04 08:23:32;;;;;;;;;;;10.60;99.90;;;;;;4979940;28;20378;-76
2023/01/04 08:26:02;;;;;;;;;;;10.70;99.90;;;;;;4982751;28;19928;-76
2023/01/04 08:28:27;;;;;;;;;;;10.60;99.90;;;;;;4976900;28;19944;-76
2023/01/04 08:30:53;;;;;;;;;;;10.70;99.90;;;;;;4984253;28;20429;-76
2023/01/04 08:33:18;;;;;;;;;;;10.70;99.90;;;;;;4981121;28;20290;-76
2023/01/04 08:35:44;;;;;;;;;;;10.90;99.90;;;;;;4982361;28;19957;-76
2023/01/04 08:38:09;;;;;;;;;;;10.80;99.90;;;;;;4981613;28;19968;-76
2023/01/04 08:40:35;;;;;;;;;;;10.80;99.90;;;;;;4982540;28;19968;-75
2023/01/04 08:43:00;;;;;;;;;;;10.70;99.90;;;;;;4981656;28;19918;-75
2023/01/04 08:45:29;;;;;;;;;;;10.80;99.90;;;;;;4979056;28;19922;-75
2023/01/04 08:47:54;;;;;;;;;;;10.70;99.90;;;;;;4978925;28;19922;-77
2023/01/04 08:50:20;;;;;;;;;;;10.80;99.90;;;;;;4978908;28;20286;-75
2023/01/04 08:52:46;;;;;;;;;;;10.80;99.90;;;;;;4980579;28;19930;-75
2023/01/04 08:55:12;;;;;;;;;;;10.80;99.90;;;;;;4982169;28;19968;-77
2023/01/04 08:57:37;;;;;;;;;;;10.80;99.90;;;;;;4982687;28;19922;-74
2023/01/04 09:00:03;;;;;;;;;;;10.90;99.90;;;;;;4979258;28;19928;-75
2023/01/04 09:02:29;;;;;;;;;;;10.90;99.90;;;;;;4982830;28;20305;-75
2023/01/04 09:05:02;;;;;;;;;;;10.90;99.90;;;;;;4982669;28;19922;-81
2023/01/04 09:07:31;;;;;;;;;;;11.00;99.90;;;;;;4980245;28;19930;-74
2023/01/04 09:09:57;;;;;;;;;;;11.00;99.90;;;;;;4981605;28;19934;-73
2023/01/04 09:12:23;;;;;;;;;;;11.90;99.90;;;;;;4984100;28;19932;-73
2023/01/04 09:14:48;;;;;;;;;;;11.00;99.90;;;;;;4978456;28;20370;-74
2023/01/04 09:17:14;;;;;;;;;;;11.10;99.90;;;;;;4981080;28;19965;-74
2023/01/04 09:19:39;;;;;;;;;;;11.10;99.90;;;;;;4983289;28;19922;-73
2023/01/04 09:22:05;;;;;;;;;;;11.00;99.90;;;;;;4981635;28;19983;-73
2023/01/04 09:24:34;;;;;;;;;;;11.10;99.90;;;;;;4982535;28;19937;-74
2023/01/04 09:26:59;;;;;;;;;;;11.00;99.90;;;;;;4982588;28;19921;-74
2023/01/04 09:29:26;;;;;;;;;;;11.10;99.90;;;;;;4980838;28;19922;-75
2023/01/04 09:31:54;;;;;;;;;;;11.00;99.90;;;;;;4979389;28;20374;-76
2023/01/04 09:34:20;;;;;;;;;;;11.00;99.90;;;;;;4982869;28;19926;-76
2023/01/04 09:36:46;;;;;;;;;;;11.10;99.90;;;;;;4980574;28;19937;-77
2023/01/04 09:39:12;;;;;;;;;;;11.20;99.90;;;;;;4975666;28;20374;-74
2023/01/04 09:41:41;;;;;;;;;;;11.20;99.90;;;;;;4979013;28;19957;-71
2023/01/04 09:44:07;;;;;;;;;;;11.20;99.90;;;;;;4980850;28;19977;-75
2023/01/04 09:46:41;;;;;;;;;;;11.50;99.90;;;;;;4981868;28;20284;-75
2023/01/04 09:49:16;;;;;;;;;;;11.30;99.90;;;;;;4979923;28;19968;-74
2023/01/04 09:52:02;;;;;;;;;;;11.30;99.90;;;;;;4981155;28;19922;-73
2023/01/04 09:54:31;;;;;;;;;;;11.40;99.90;;;;;;4983719;28;20309;-75
2023/01/04 09:56:58;;;;;;;;;;;11.30;99.90;;;;;;4979705;28;19930;-74
2023/01/04 09:59:31;;;;;;;;;;;11.30;99.90;;;;;;4982338;28;19925;-76
2023/01/04 10:02:00;;;;;;;;;;;11.40;99.90;;;;;;4977870;28;19918;-74
2023/01/04 10:04:31;;;;;;;;;;;11.50;99.90;;;;;;4981786;28;20432;-74
2023/01/04 10:06:57;;;;;;;;;;;11.40;99.90;;;;;;4981228;28;19921;-75
2023/01/04 10:09:22;;;;;;;;;;;11.50;99.90;;;;;;4976662;28;20396;-75
2023/01/04 10:11:58;;;;;;;;;;;11.50;99.90;;;;;;4981459;28;19922;-73
2023/01/04 10:14:36;;;;;;;;;;;11.60;99.90;;;;;;4981850;28;19921;-76
2023/01/04 10:17:12;;;;;;;;;;;11.60;99.90;;;;;;4979523;28;19930;-74
2023/01/04 10:19:37;;;;;;;;;;;11.60;99.90;;;;;;4975062;28;20384;-75
2023/01/04 10:22:08;;;;;;;;;;;11.70;99.90;;;;;;4978461;28;19929;-73
2023/01/04 10:24:44;;;;;;;;;;;11.70;99.90;;;;;;4978609;28;19926;-74
2023/01/04 10:27:30;;;;;;;;;;;11.70;99.90;;;;;;4974788;28;19944;-73
2023/01/04 10:29:55;;;;;;;;;;;11.70;99.90;;;;;;4972257;28;19936;-76
2023/01/04 10:32:32;;;;;;;;;;;11.70;99.90;;;;;;4972038;28;20017;-75
2023/01/04 10:34:58;;;;;;;;;;;11.80;99.90;;;;;;4979606;28;19924;-74
2023/01/04 10:37:26;;;;;;;;;;;11.90;99.90;;;;;;4980312;28;19926;-75
2023/01/04 10:39:54;;;;;;;;;;;11.90;99.90;;;;;;4981599;28;20340;-74
2023/01/04 10:42:42;;;;;;;;;;;11.80;99.90;;;;;;4981929;28;19937;-76
2023/01/04 10:45:16;;;;;;;;;;;11.80;99.90;;;;;;4969768;28;19966;-78
2023/01/04 10:47:52;;;;;;;;;;;11.80;99.90;;;;;;4982355;28;20026;-75
2023/01/04 10:50:21;;;;;;;;;;;11.70;99.90;;;;;;4980093;28;19922;-76
2023/01/04 10:52:52;;;;;;;;;;;11.80;99.90;;;;;;4975432;28;19929;-74
2023/01/04 10:55:18;;;;;;;;;;;11.80;99.90;;;;;;4979318;28;19922;-73
2023/01/04 10:57:43;;;;;;;;;;;11.90;99.90;;;;;;4980818;28;19922;-72
2023/01/04 11:00:19;;;;;;;;;;;12.00;99.90;;;;;;4969639;28;19965;-72
2023/01/04 11:02:47;;;;;;;;;;;11.90;99.90;;;;;;4979516;28;19921;-74
2023/01/04 11:05:16;;;;;;;;;;;11.90;99.90;;;;;;4978427;28;19953;-74
2023/01/04 11:08:02;;;;;;;;;;;11.90;99.90;;;;;;4977672;28;19960;-72
2023/01/04 11:10:30;;;;;;;;;;;11.90;99.90;;;;;;4983291;28;20378;-70
2023/01/04 11:12:56;;;;;;;;;;;12.10;99.90;;;;;;4984508;28;19941;-72
2023/01/04 11:15:22;;;;;;;;;;;11.80;99.90;;;;;;4983868;28;20017;-73
2023/01/04 11:17:49;;;;;;;;;;;11.90;99.90;;;;;;4981493;28;20025;-75
2023/01/04 11:20:14;;;;;;;;;;;11.90;99.90;;;;;;4982180;28;19922;-73
2023/01/04 11:22:58;;;;;;;;;;;12.00;99.90;;;;;;4981355;28;19929;-72
2023/01/04 11:25:25;;;;;;;;;;;12.00;99.90;;;;;;4981287;28;20300;-77
2023/01/04 11:27:56;;;;;;;;;;;12.00;99.90;;;;;;4981960;28;19930;-77
2023/01/04 11:30:23;;;;;;;;;;;12.00;99.90;;;;;;4981129;28;19929;-73
2023/01/04 11:33:13;;;;;;;;;;;12.00;99.90;;;;;;4981875;28;19937;-71
2023/01/04 11:35:47;;;;;;;;;;;12.00;99.90;;;;;;4981111;28;19922;-73
2023/01/04 11:38:12;;;;;;;;;;;12.00;99.90;;;;;;4982089;28;20015;-73
2023/01/04 11:40:40;;;;;;;;;;;12.00;99.90;;;;;;4982812;28;19976;-73
2023/01/04 11:43:16;;;;;;;;;;;12.00;99.90;;;;;;4982763;28;20339;-74
2023/01/04 11:45:51;;;;;;;;;;;11.90;99.90;;;;;;4971153;28;19946;-74
2023/01/04 11:48:16;;;;;;;;;;;12.00;99.90;;;;;;4983441;28;20283;-83
2023/01/04 11:50:45;;;;;;;;;;;11.90;99.90;;;;;;4984584;28;19983;-72
2023/01/04 11:53:21;;;;;;;;;;;11.90;99.90;;;;;;4986457;28;19932;-77
2023/01/04 11:55:47;;;;;;;;;;;12.00;99.90;;;;;;4986451;28;19925;-74
2023/01/04 11:58:13;;;;;;;;;;;11.90;99.90;;;;;;4986608;28;20396;-78
2023/01/04 12:00:52;;;;;;;;;;;11.80;99.90;;;;;;4978499;28;19921;-73
2023/01/04 12:03:24;;;;;;;;;;;11.80;99.90;;;;;;4983905;28;19926;-74
2023/01/04 12:05:49;;;;;;;;;;;11.80;99.90;;;;;;4967014;28;20020;-74
2023/01/04 12:08:34;;;;;;;;;;;11.80;99.90;;;;;;4976599;28;19981;-74
2023/01/04 12:11:01;;;;;;;;;;;11.70;99.90;;;;;;4977403;28;19925;-73
2023/01/04 12:13:27;;;;;;;;;;;11.80;99.90;;;;;;4982110;28;19921;-74
2023/01/04 12:16:12;;;;;;;;;;;11.70;99.90;;;;;;4980989;28;20353;-73
2023/01/04 12:18:40;;;;;;;;;;;11.70;99.90;;;;;;4979148;28;19922;-74
2023/01/04 12:21:11;;;;;;;;;;;11.70;99.90;;;;;;4981183;28;20437;-72
2023/01/04 12:23:37;;;;;;;;;;;11.70;99.90;;;;;;4981540;28;20298;-74
2023/01/04 12:26:02;;;;;;;;;;;11.90;99.90;;;;;;4981047;28;19925;-74
2023/01/04 12:28:35;;;;;;;;;;;11.70;99.90;;;;;;4982336;28;19922;-73
2023/01/04 12:31:19;;;;;;;;;;;11.60;99.90;;;;;;4982130;28;19976;-74
2023/01/04 12:33:56;;;;;;;;;;;11.70;99.90;;;;;;4976429;28;19921;-74
2023/01/04 12:36:44;;;;;;;;;;;11.80;99.90;;;;;;4977459;28;19922;-73
2023/01/04 12:39:13;;;;;;;;;;;11.70;99.90;;;;;;4981036;28;19922;-76
2023/01/04 12:41:38;;;;;;;;;;;11.70;99.90;;;;;;4983152;28;20004;-78
2023/01/04 12:44:23;;;;;;;;;;;11.70;99.90;;;;;;4982033;28;20376;-78
2023/01/04 12:49:44;;;;;;;;;;;11.70;99.90;;;;;;4997729;28;19968;-75
2023/01/04 12:52:09;;;;;;;;;;;11.70;99.90;;;;;;4974169;28;19922;-76
2023/01/04 12:54:44;;;;;;;;;;;11.70;99.90;;;;;;4981913;28;19971;-78
2023/01/04 12:57:16;;;;;;;;;;;11.70;99.90;;;;;;4977551;28;19921;-80
2023/01/04 12:59:56;;;;;;;;;;;11.60;99.90;;;;;;4979316;28;19945;-82
2023/01/04 13:02:28;;;;;;;;;;;11.50;99.90;;;;;;4979402;28;20020;-81
2023/01/04 13:04:57;;;;;;;;;;;11.60;99.90;;;;;;4983627;28;19966;-78
2023/01/04 13:07:29;;;;;;;;;;;11.60;99.90;;;;;;4981853;28;19926;-79
2023/01/04 13:10:17;;;;;;;;;;;11.50;99.90;;;;;;4981512;28;19961;-78
2023/01/04 13:12:48;;;;;;;;;;;11.50;99.90;;;;;;4985594;28;19922;-76
2023/01/04 13:15:22;;;;;;;;;;;11.50;99.90;;;;;;4982101;28;19968;-79
2023/01/04 13:17:51;;;;;;;;;;;11.40;99.90;;;;;;4983792;28;19921;-76
2023/01/04 13:20:20;;;;;;;;;;;11.40;99.90;;;;;;4981147;28;20060;-75
2023/01/04 13:22:50;;;;;;;;;;;11.50;99.90;;;;;;4976293;28;20004;-73
2023/01/04 13:25:17;;;;;;;;;;;11.50;99.90;;;;;;4981779;28;19929;-74
2023/01/04 13:28:03;;;;;;;;;;;11.50;99.90;;;;;;4979849;28;19929;-76
2023/01/04 13:30:36;;;;;;;;;;;11.50;99.90;;;;;;4973016;28;20065;-76
2023/01/04 13:33:16;;;;;;;;;;;11.50;99.90;;;;;;4976148;28;20048;-75
2023/01/04 13:35:42;;;;;;;;;;;11.50;99.90;;;;;;4973643;28;19922;-75
2023/01/04 13:38:15;;;;;;;;;;;11.30;99.90;;;;;;4981343;28;19922;-73
2023/01/04 13:40:44;;;;;;;;;;;11.30;99.90;;;;;;4979479;28;19929;-70
2023/01/04 13:43:28;;;;;;;;;;;11.30;99.90;;;;;;4967294;28;19961;-75
2023/01/04 13:45:57;;;;;;;;;;;11.30;99.90;;;;;;4979908;28;19973;-76
2023/01/04 13:48:23;;;;;;;;;;;11.30;99.90;;;;;;4983198;28;19926;-78
2023/01/04 13:51:00;;;;;;;;;;;11.20;99.90;;;;;;4981194;28;20012;-78
2023/01/04 13:53:27;;;;;;;;;;;11.30;99.90;;;;;;4980276;28;19940;-75
2023/01/04 13:55:54;;;;;;;;;;;11.40;99.90;;;;;;4980382;28;19921;-74
2023/01/04 13:58:21;;;;;;;;;;;11.50;99.90;;;;;;4977697;28;19922;-75
2023/01/04 14:00:49;;;;;;;;;;;11.40;99.90;;;;;;4981438;28;19922;-76
2023/01/04 14:03:24;;;;;;;;;;;11.30;99.90;;;;;;4976174;28;19922;-74
2023/01/04 14:05:50;;;;;;;;;;;11.40;99.90;;;;;;4983559;28;19969;-78
2023/01/04 14:08:33;;;;;;;;;;;11.40;99.90;;;;;;4980823;28;19929;-77
2023/01/04 14:10:59;;;;;;;;;;;11.40;99.90;;;;;;4980544;28;19929;-79
2023/01/04 14:13:25;;;;;;;;;;;11.50;99.90;;;;;;4978549;28;19929;-78
2023/01/04 14:16:03;;;;;;;;;;;11.30;99.90;;;;;;4979477;28;19918;-76
2023/01/04 14:18:32;;;;;;;;;;;11.30;99.90;;;;;;4979776;28;20300;-75
2023/01/04 14:20:57;;;;;;;;;;;11.30;99.90;;;;;;4975195;28;19925;-76
2023/01/04 14:23:28;;;;;;;;;;;11.20;99.90;;;;;;4981426;28;19922;-75
2023/01/04 14:25:56;;;;;;;;;;;11.20;99.90;;;;;;4979659;28;20321;-76
2023/01/04 14:28:26;;;;;;;;;;;11.20;99.90;;;;;;4977771;28;19918;-73
2023/01/04 14:30:55;;;;;;;;;;;11.10;99.90;;;;;;4978625;28;20004;-74
2023/01/04 14:33:25;;;;;;;;;;;11.10;99.90;;;;;;4981745;28;19925;-78
2023/01/04 14:36:01;;;;;;;;;;;11.00;99.90;;;;;;4980788;28;19928;-75
2023/01/04 14:38:26;;;;;;;;;;;11.10;99.90;;;;;;4977384;28;19926;-76
2023/01/04 14:40:52;;;;;;;;;;;11.00;99.90;;;;;;4981308;28;19976;-77
2023/01/04 14:43:34;;;;;;;;;;;11.10;99.90;;;;;;4981213;28;20361;-78
2023/01/04 14:46:00;;;;;;;;;;;11.10;99.90;;;;;;4982400;28;19921;-77
2023/01/04 14:48:31;;;;;;;;;;;11.00;99.90;;;;;;4983285;28;19922;-76
2023/01/04 14:50:58;;;;;;;;;;;11.20;99.90;;;;;;4983409;28;20008;-74
2023/01/04 14:53:24;;;;;;;;;;;11.10;99.90;;;;;;4987793;28;20339;-75
2023/01/04 14:55:49;;;;;;;;;;;11.10;99.90;;;;;;4984595;28;20013;-75
2023/01/04 14:58:15;;;;;;;;;;;11.10;99.90;;;;;;4985130;28;20431;-75
2023/01/04 15:00:41;;;;;;;;;;;11.10;99.90;;;;;;4984211;28;19921;-74
2023/01/04 15:03:08;;;;;;;;;;;11.10;99.90;;;;;;4983532;28;19965;-75
2023/01/04 15:05:33;;;;;;;;;;;11.10;99.90;;;;;;4985354;28;20457;-74
2023/01/04 15:08:00;;;;;;;;;;;11.20;99.90;;;;;;4987416;28;19978;-73
2023/01/04 15:10:27;;;;;;;;;;;11.10;99.90;;;;;;4981762;28;20345;-71
2023/01/04 15:12:53;;;;;;;;;;;11.10;99.90;;;;;;4989050;28;19976;-72
2023/01/04 15:15:18;;;;;;;;;;;11.10;99.90;;;;;;4985534;28;19973;-73
2023/01/04 15:17:44;;;;;;;;;;;11.10;99.90;;;;;;4983306;28;19961;-75
2023/01/04 15:20:10;;;;;;;;;;;11.00;99.90;;;;;;4978614;28;20345;-73
2023/01/04 15:22:37;;;;;;;;;;;11.00;99.90;;;;;;4983075;28;19917;-73
2023/01/04 15:25:02;;;;;;;;;;;10.90;99.90;;;;;;4983569;28;20008;-73